sensor_id;sensor_type;location;lat;lon;timestamp;P1;durP1;ratioP1;P2;durP2;ratioP2
62149;SDS011;48134;53.586;10.610;2022-11-15T20:46:19;6.60;;;4.20;;
62149;SDS011;48134;53.586;10.610;2022-11-15T20:48:48;8.60;;;4.22;;
62149;SDS011;48134;53.586;10.610;2022-11-15T20:51:20;9.07;;;5.00;;
62149;SDS011;48134;53.586;10.610;2022-11-15T20:53:54;11.38;;;4.68;;
62149;SDS011;48134;53.586;10.610;2022-11-15T20:56:22;6.95;;;4.97;;
62149;SDS011;48134;53.586;10.610;2022-11-15T20:58:50;7.32;;;4.68;;
62149;SDS011;48134;53.586;10.610;2022-11-15T21:01:25;8.15;;;4.70;;
62149;SDS011;48134;53.586;10.610;2022-11-15T21:03:58;6.40;;;4.22;;
62149;SDS011;48134;53.586;10.610;2022-11-15T21:06:31;6.88;;;4.38;;
62149;SDS011;48134;53.586;10.610;2022-11-15T21:09:04;7.38;;;5.10;;
62149;SDS011;48134;53.586;10.610;2022-11-15T21:11:54;6.28;;;4.38;;
62149;SDS011;48134;53.586;10.610;2022-11-15T21:14:42;7.45;;;4.97;;
62149;SDS011;48134;53.586;10.610;2022-11-15T21:17:16;6.60;;;3.95;;
62149;SDS011;48134;53.586;10.610;2022-11-15T21:19:44;7.32;;;4.78;;
62149;SDS011;48134;53.586;10.610;2022-11-15T21:22:13;6.55;;;4.57;;
62149;SDS011;48134;53.586;10.610;2022-11-15T21:24:46;7.55;;;4.72;;
62149;SDS011;48134;53.586;10.610;2022-11-15T21:27:14;7.85;;;4.88;;
62149;SDS011;48134;53.586;10.610;2022-11-15T21:29:46;7.75;;;4.78;;
62149;SDS011;48134;53.586;10.610;2022-11-15T21:32:21;7.93;;;5.32;;
62149;SDS011;48134;53.586;10.610;2022-11-15T21:34:49;8.15;;;4.88;;
62149;SDS011;48134;53.586;10.610;2022-11-15T21:37:17;8.88;;;5.05;;
62149;SDS011;48134;53.586;10.610;2022-11-15T21:42:17;7.70;;;4.53;;
62149;SDS011;48134;53.586;10.610;2022-11-15T21:44:50;8.10;;;4.75;;
62149;SDS011;48134;53.586;10.610;2022-11-15T21:47:17;8.55;;;5.18;;
62149;SDS011;48134;53.586;10.610;2022-11-15T21:49:47;8.05;;;5.10;;
62149;SDS011;48134;53.586;10.610;2022-11-15T21:52:19;7.68;;;4.35;;
62149;SDS011;48134;53.586;10.610;2022-11-15T21:54:52;7.13;;;4.50;;
62149;SDS011;48134;53.586;10.610;2022-11-15T21:59:47;8.23;;;5.07;;
62149;SDS011;48134;53.586;10.610;2022-11-15T22:02:37;7.85;;;4.85;;
62149;SDS011;48134;53.586;10.610;2022-11-15T22:07:34;7.75;;;5.03;;
62149;SDS011;48134;53.586;10.610;2022-11-15T22:10:07;9.98;;;5.47;;
62149;SDS011;48134;53.586;10.610;2022-11-15T22:12:39;8.38;;;5.47;;
62149;SDS011;48134;53.586;10.610;2022-11-15T22:15:12;9.48;;;5.85;;
62149;SDS011;48134;53.586;10.610;2022-11-15T22:17:40;10.57;;;5.72;;
62149;SDS011;48134;53.586;10.610;2022-11-15T22:20:26;9.43;;;5.75;;
62149;SDS011;48134;53.586;10.610;2022-11-15T22:22:58;10.10;;;5.40;;
62149;SDS011;48134;53.586;10.610;2022-11-15T22:25:32;10.75;;;6.00;;
62149;SDS011;48134;53.586;10.610;2022-11-15T22:28:07;8.10;;;5.65;;
62149;SDS011;48134;53.586;10.610;2022-11-15T22:30:35;10.13;;;5.55;;
62149;SDS011;48134;53.586;10.610;2022-11-15T22:33:03;9.13;;;6.03;;
62149;SDS011;48134;53.586;10.610;2022-11-15T22:35:32;10.32;;;6.50;;
62149;SDS011;48134;53.586;10.610;2022-11-15T22:38:02;10.07;;;6.20;;
62149;SDS011;48134;53.586;10.610;2022-11-15T22:40:35;8.48;;;6.05;;
62149;SDS011;48134;53.586;10.610;2022-11-15T22:43:08;10.50;;;6.75;;
62149;SDS011;48134;53.586;10.610;2022-11-15T22:45:36;10.52;;;6.55;;
62149;SDS011;48134;53.586;10.610;2022-11-15T22:48:09;11.63;;;6.13;;
62149;SDS011;48134;53.586;10.610;2022-11-15T22:50:37;9.23;;;6.30;;
62149;SDS011;48134;53.586;10.610;2022-11-15T22:53:11;10.73;;;6.80;;
62149;SDS011;48134;53.586;10.610;2022-11-15T22:55:48;9.55;;;6.25;;
62149;SDS011;48134;53.586;10.610;2022-11-15T22:58:16;10.77;;;6.72;;
62149;SDS011;48134;53.586;10.610;2022-11-15T23:00:49;11.23;;;6.50;;
62149;SDS011;48134;53.586;10.610;2022-11-15T23:03:17;11.30;;;6.43;;
62149;SDS011;48134;53.586;10.610;2022-11-15T23:05:51;10.73;;;7.18;;
62149;SDS011;48134;53.586;10.610;2022-11-15T23:08:20;12.18;;;6.60;;
62149;SDS011;48134;53.586;10.610;2022-11-15T23:10:53;10.30;;;6.60;;
62149;SDS011;48134;53.586;10.610;2022-11-15T23:13:44;9.93;;;6.15;;
62149;SDS011;48134;53.586;10.610;2022-11-15T23:16:12;9.02;;;5.60;;
62149;SDS011;48134;53.586;10.610;2022-11-15T23:18:55;10.55;;;6.25;;
62149;SDS011;48134;53.586;10.610;2022-11-15T23:21:23;9.18;;;5.88;;
62149;SDS011;48134;53.586;10.610;2022-11-15T23:24:15;11.00;;;6.68;;
62149;SDS011;48134;53.586;10.610;2022-11-15T23:26:49;7.72;;;3.78;;
62149;SDS011;48134;53.586;10.610;2022-11-15T23:29:23;11.57;;;6.88;;
62149;SDS011;48134;53.586;10.610;2022-11-15T23:31:51;11.63;;;6.97;;
62149;SDS011;48134;53.586;10.610;2022-11-15T23:34:42;10.50;;;7.13;;
62149;SDS011;48134;53.586;10.610;2022-11-15T23:37:15;10.88;;;6.60;;
62149;SDS011;48134;53.586;10.610;2022-11-15T23:39:49;9.98;;;6.18;;
62149;SDS011;48134;53.586;10.610;2022-11-15T23:42:17;11.77;;;7.35;;
62149;SDS011;48134;53.586;10.610;2022-11-15T23:44:46;11.02;;;6.75;;
62149;SDS011;48134;53.586;10.610;2022-11-15T23:47:21;9.80;;;5.93;;
62149;SDS011;48134;53.586;10.610;2022-11-15T23:49:48;10.00;;;6.28;;
62149;SDS011;48134;53.586;10.610;2022-11-15T23:52:21;14.15;;;6.90;;
62149;SDS011;48134;53.586;10.610;2022-11-15T23:54:57;12.45;;;6.57;;
62149;SDS011;48134;53.586;10.610;2022-11-15T23:57:25;10.65;;;6.53;;
62149;SDS011;48134;53.586;10.610;2022-11-15T23:59:58;10.85;;;6.95;;
